createdAt,value
2019-03-27T00:01:25.363Z,9.67
2019-03-27T00:04:14.184Z,8.30
2019-03-27T00:07:02.979Z,9.17
2019-03-27T00:09:51.788Z,6.73
2019-03-27T00:12:40.586Z,6.77
2019-03-27T00:15:29.401Z,8.37
2019-03-27T00:18:18.203Z,8.30
2019-03-27T00:21:07.033Z,9.00
2019-03-27T00:24:03.395Z,9.67
2019-03-27T00:26:52.240Z,7.97
2019-03-27T00:29:41.028Z,7.30
2019-03-27T00:32:29.849Z,11.33
2019-03-27T00:35:18.666Z,6.23
2019-03-27T00:38:07.464Z,6.87
2019-03-27T00:41:15.303Z,11.27
2019-03-27T00:44:23.125Z,7.90
2019-03-27T00:47:05.211Z,8.30
2019-03-27T00:49:54.017Z,8.27
2019-03-27T00:52:35.813Z,10.50
2019-03-27T00:55:43.619Z,9.90
2019-03-27T00:58:32.420Z,8.30
2019-03-27T01:01:21.233Z,9.43
2019-03-27T01:04:10.042Z,9.00
2019-03-27T01:06:58.848Z,6.87
2019-03-27T01:09:47.668Z,7.50
2019-03-27T01:12:36.465Z,8.10
2019-03-27T01:15:34.339Z,9.50
2019-03-27T01:18:15.813Z,8.57
2019-03-27T01:21:05.225Z,9.67
2019-03-27T01:23:54.021Z,8.03
2019-03-27T01:26:42.843Z,11.33
2019-03-27T01:29:31.646Z,8.60
2019-03-27T01:32:20.463Z,9.53
2019-03-27T01:35:09.335Z,8.33
2019-03-27T01:40:52.874Z,7.43
2019-03-27T01:43:41.701Z,9.80
2019-03-27T01:46:30.498Z,9.00
2019-03-27T01:49:12.585Z,10.43
2019-03-27T01:52:01.399Z,9.90
2019-03-27T01:54:50.194Z,10.10
2019-03-27T01:57:39.014Z,10.30
2019-03-27T02:00:27.809Z,10.53
2019-03-27T02:03:16.628Z,10.93
2019-03-27T02:06:05.500Z,10.03
2019-03-27T02:08:54.325Z,10.03
2019-03-27T02:11:43.207Z,9.80
2019-03-27T02:17:39.759Z,11.33
2019-03-27T02:20:28.560Z,10.20
2019-03-27T02:23:17.362Z,12.47
2019-03-27T02:26:06.236Z,11.97
2019-03-27T02:28:55.045Z,9.87
2019-03-27T02:31:43.857Z,8.80
2019-03-27T02:34:32.671Z,16.27
2019-03-27T02:37:21.473Z,7.97
2019-03-27T02:40:10.991Z,8.53
2019-03-27T02:42:59.824Z,11.80
2019-03-27T02:45:48.649Z,10.00
2019-03-27T02:48:37.443Z,15.17
2019-03-27T02:51:18.902Z,9.37
2019-03-27T02:54:07.703Z,15.00
2019-03-27T02:56:56.520Z,12.00
2019-03-27T02:59:45.352Z,11.77
2019-03-27T03:02:34.143Z,9.77
2019-03-27T03:05:22.961Z,12.23
2019-03-27T03:08:11.754Z,9.60
2019-03-27T03:11:00.579Z,11.33
2019-03-27T03:13:49.387Z,13.43
2019-03-27T03:16:42.854Z,12.33
2019-03-27T03:19:28.735Z,12.27
2019-03-27T03:22:17.523Z,12.73
2019-03-27T03:25:06.616Z,13.27
2019-03-27T03:30:49.271Z,12.68
2019-03-27T03:33:38.067Z,10.63
2019-03-27T03:36:26.878Z,13.40
2019-03-27T03:39:15.948Z,13.27
2019-03-27T03:42:04.777Z,10.07
2019-03-27T03:44:53.552Z,15.30
2019-03-27T03:47:42.436Z,12.07
2019-03-27T03:50:43.072Z,10.10
2019-03-27T03:53:32.132Z,13.20
2019-03-27T03:56:41.865Z,15.07
2019-03-27T03:59:30.932Z,12.90
2019-03-27T04:02:20.124Z,12.83
2019-03-27T04:05:28.671Z,13.10
2019-03-27T04:08:17.466Z,10.73
2019-03-27T04:11:06.276Z,11.90
2019-03-27T04:13:55.169Z,15.40
2019-03-27T04:16:43.954Z,12.40
2019-03-27T04:19:32.747Z,12.03
2019-03-27T04:22:21.568Z,10.80
2019-03-27T04:25:10.401Z,11.73
2019-03-27T04:27:59.199Z,10.60
2019-03-27T04:30:48.025Z,10.97
2019-03-27T04:33:37.082Z,8.80
2019-03-27T04:36:25.910Z,11.03
2019-03-27T04:39:14.700Z,12.03
2019-03-27T04:42:03.528Z,10.03
2019-03-27T04:44:52.322Z,9.97
2019-03-27T04:50:28.333Z,13.17
2019-03-27T04:53:17.129Z,16.70
2019-03-27T04:56:05.947Z,15.23
2019-03-27T04:58:54.747Z,13.07
2019-03-27T05:02:02.583Z,11.30
2019-03-27T05:08:00.767Z,11.53
2019-03-27T05:10:49.558Z,13.00
2019-03-27T05:13:38.380Z,13.30
2019-03-27T05:16:27.180Z,14.83
2019-03-27T05:19:16.000Z,13.53
2019-03-27T05:22:04.798Z,10.55
2019-03-27T05:24:53.620Z,11.97
2019-03-27T05:27:42.432Z,11.10
2019-03-27T05:30:31.309Z,13.40
2019-03-27T05:33:20.102Z,10.10
2019-03-27T05:36:08.924Z,9.90
2019-03-27T05:38:57.729Z,11.93
2019-03-27T05:41:46.540Z,10.43
2019-03-27T05:44:35.344Z,16.97
2019-03-27T05:47:24.158Z,16.87
2019-03-27T05:50:13.043Z,14.87
2019-03-27T05:52:55.023Z,12.63
2019-03-27T05:55:44.901Z,12.26
2019-03-27T05:58:33.727Z,13.57
2019-03-27T06:04:16.823Z,12.60
2019-03-27T06:07:05.651Z,14.40
2019-03-27T06:09:54.464Z,20.17
2019-03-27T06:12:43.292Z,19.57
2019-03-27T06:15:32.106Z,21.87
2019-03-27T06:18:20.932Z,20.00
2019-03-27T06:21:09.752Z,19.33
2019-03-27T06:23:58.550Z,20.00
2019-03-27T06:26:47.371Z,27.93
2019-03-27T06:29:36.165Z,31.63
2019-03-27T06:32:24.987Z,25.53
2019-03-27T06:35:13.847Z,23.80
2019-03-27T06:38:02.750Z,11.60
2019-03-27T06:40:51.570Z,13.63
2019-03-27T06:43:40.388Z,19.50
2019-03-27T06:46:29.203Z,18.45
2019-03-27T06:49:37.061Z,15.07
2019-03-27T06:52:19.129Z,14.33
2019-03-27T06:58:23.146Z,13.60
2019-03-27T07:01:11.977Z,14.03
2019-03-27T07:04:10.467Z,11.17
2019-03-27T07:06:51.340Z,12.63
2019-03-27T07:09:42.482Z,11.90
2019-03-27T07:12:30.967Z,13.30
2019-03-27T07:15:20.080Z,13.30
2019-03-27T07:18:08.908Z,15.13
2019-03-27T07:21:16.733Z,14.90
2019-03-27T07:24:05.571Z,16.57
2019-03-27T07:26:54.370Z,16.53
2019-03-27T07:29:43.182Z,14.20
2019-03-27T07:32:32.022Z,13.90
2019-03-27T07:35:20.820Z,14.27
2019-03-27T07:38:09.644Z,14.13
2019-03-27T07:40:58.442Z,11.90
2019-03-27T07:43:47.281Z,12.57
2019-03-27T07:46:36.093Z,15.43
2019-03-27T07:49:24.915Z,12.20
2019-03-27T07:52:13.714Z,12.40
2019-03-27T07:55:02.536Z,13.17
2019-03-27T08:00:59.089Z,14.10
2019-03-27T08:03:47.898Z,11.77
2019-03-27T08:06:36.718Z,12.17
2019-03-27T08:09:25.521Z,14.00
2019-03-27T08:12:14.336Z,11.80
2019-03-27T08:18:17.930Z,16.27
2019-03-27T08:21:06.757Z,16.80
2019-03-27T08:23:55.556Z,11.70
2019-03-27T08:26:44.389Z,12.00
2019-03-27T08:29:33.182Z,13.17
2019-03-27T08:32:22.012Z,12.57
2019-03-27T08:38:39.388Z,10.87
2019-03-27T08:41:28.185Z,14.33
2019-03-27T08:44:17.010Z,11.20
2019-03-27T08:47:05.818Z,11.37
2019-03-27T08:49:54.643Z,11.27
2019-03-27T08:52:36.140Z,11.47
2019-03-27T08:55:24.961Z,11.87
2019-03-27T08:58:13.773Z,12.53
2019-03-27T09:01:02.599Z,10.50
2019-03-27T09:03:51.398Z,9.73
2019-03-27T09:06:40.298Z,12.60
2019-03-27T09:09:29.102Z,10.40
2019-03-27T09:12:17.928Z,8.40
2019-03-27T09:15:27.630Z,10.87
2019-03-27T09:18:17.020Z,15.50
2019-03-27T09:21:06.971Z,8.37
2019-03-27T09:23:55.797Z,10.53
2019-03-27T09:26:44.685Z,12.30
2019-03-27T09:29:33.507Z,9.93
2019-03-27T09:32:22.331Z,9.85
2019-03-27T09:38:39.554Z,10.17
2019-03-27T09:41:28.367Z,9.20
2019-03-27T09:44:17.184Z,17.60
2019-03-27T09:47:06.019Z,7.87
2019-03-27T09:49:54.820Z,11.13
2019-03-27T09:52:36.544Z,10.00
2019-03-27T09:58:20.199Z,8.43
2019-03-27T10:01:09.053Z,6.00
2019-03-27T10:03:57.850Z,6.33
2019-03-27T10:06:46.677Z,5.30
2019-03-27T10:09:35.497Z,7.80
2019-03-27T10:12:24.371Z,6.73
2019-03-27T10:15:13.531Z,6.43
2019-03-27T10:18:02.367Z,7.87
2019-03-27T10:20:51.173Z,6.70
2019-03-27T10:23:39.999Z,6.90
2019-03-27T10:26:28.824Z,8.48
2019-03-27T10:29:17.645Z,5.50
2019-03-27T10:32:06.472Z,5.20
2019-03-27T10:34:55.276Z,6.30
2019-03-27T10:37:44.073Z,6.30
2019-03-27T10:40:32.895Z,5.43
2019-03-27T10:43:21.699Z,5.07
2019-03-27T10:46:10.523Z,9.07
2019-03-27T10:48:59.336Z,7.80
2019-03-27T10:51:41.263Z,6.60
2019-03-27T10:54:30.087Z,12.40
2019-03-27T10:57:18.913Z,11.20
2019-03-27T11:00:28.928Z,9.50
2019-03-27T11:03:17.991Z,9.10
2019-03-27T11:06:06.786Z,8.67
2019-03-27T11:08:55.602Z,8.80
2019-03-27T11:11:44.441Z,8.97
2019-03-27T11:14:52.293Z,16.90
2019-03-27T11:19:55.256Z,8.63
2019-03-27T11:23:03.082Z,13.43
2019-03-27T11:25:33.341Z,9.00
2019-03-27T11:28:41.163Z,13.30
2019-03-27T11:31:29.985Z,6.30
2019-03-27T11:34:18.791Z,7.83
2019-03-27T11:37:07.615Z,8.17
2019-03-27T11:39:56.412Z,6.53
2019-03-27T11:42:45.236Z,7.60
2019-03-27T11:45:34.059Z,9.43
2019-03-27T11:48:22.854Z,8.80
2019-03-27T11:51:11.677Z,8.40
2019-03-27T11:53:53.814Z,8.27
2019-03-27T11:56:42.645Z,9.13
2019-03-27T11:59:31.448Z,9.07
2019-03-27T12:02:20.267Z,7.60
2019-03-27T12:05:09.136Z,7.93
2019-03-27T12:07:57.964Z,6.93
2019-03-27T12:10:47.630Z,9.40
2019-03-27T12:13:36.449Z,9.00
2019-03-27T12:16:25.263Z,8.40
2019-03-27T12:19:14.219Z,6.20
2019-03-27T12:25:10.920Z,8.47
2019-03-27T12:27:59.739Z,8.37
2019-03-27T12:30:48.577Z,8.53
2019-03-27T12:33:37.380Z,5.50
2019-03-27T12:36:26.264Z,7.27
2019-03-27T12:39:15.071Z,6.27
2019-03-27T12:42:03.896Z,7.23
2019-03-27T12:44:52.715Z,8.47
2019-03-27T12:47:41.584Z,8.23
2019-03-27T12:50:30.405Z,7.67
2019-03-27T12:53:11.638Z,7.50
2019-03-27T12:56:00.468Z,9.17
2019-03-27T12:58:49.274Z,8.30
2019-03-27T13:01:38.087Z,5.50
2019-03-27T13:04:26.902Z,8.97
2019-03-27T13:07:15.724Z,6.50
2019-03-27T13:10:25.434Z,5.80
2019-03-27T13:13:14.259Z,5.57
2019-03-27T13:19:10.885Z,9.07
2019-03-27T13:21:59.711Z,7.27
2019-03-27T13:25:07.554Z,11.10
2019-03-27T13:27:56.385Z,8.60
2019-03-27T13:30:25.870Z,10.27
2019-03-27T13:33:14.683Z,5.97
2019-03-27T13:36:03.507Z,7.87
2019-03-27T13:38:52.306Z,6.27
2019-03-27T13:41:41.149Z,7.63
2019-03-27T13:44:36.723Z,11.90
2019-03-27T13:47:20.509Z,7.43
2019-03-27T13:50:30.220Z,5.63
2019-03-27T13:53:19.036Z,7.60
2019-03-27T13:56:00.746Z,8.50
2019-03-27T13:58:49.545Z,7.07
2019-03-27T14:01:38.687Z,5.23
2019-03-27T14:04:27.545Z,11.70
2019-03-27T14:07:16.347Z,5.40
2019-03-27T14:10:07.097Z,5.50
2019-03-27T14:12:55.912Z,7.73
2019-03-27T14:15:44.734Z,6.80
2019-03-27T14:18:33.568Z,10.10
2019-03-27T14:21:23.404Z,5.80
2019-03-27T14:24:12.909Z,7.07
2019-03-27T14:27:01.723Z,7.27
2019-03-27T14:29:50.552Z,6.40
2019-03-27T14:32:39.356Z,8.90
2019-03-27T14:35:28.181Z,8.17
2019-03-27T14:38:16.998Z,8.40
2019-03-27T14:41:05.821Z,4.83
2019-03-27T14:43:54.640Z,7.73
2019-03-27T14:46:43.452Z,10.93
2019-03-27T14:49:32.273Z,7.70
2019-03-27T14:52:14.100Z,8.35
2019-03-27T14:55:03.519Z,7.33
2019-03-27T14:57:53.473Z,9.20
2019-03-27T15:00:42.270Z,5.63
2019-03-27T15:03:31.090Z,5.63
2019-03-27T15:06:19.894Z,7.43
2019-03-27T15:09:09.384Z,6.73
2019-03-27T15:11:58.193Z,6.70
2019-03-27T15:14:47.019Z,8.20
2019-03-27T15:17:35.893Z,7.07
2019-03-27T15:20:24.713Z,5.30
2019-03-27T15:23:13.525Z,6.90
2019-03-27T15:26:02.414Z,7.80
2019-03-27T15:28:51.272Z,7.23
2019-03-27T15:31:40.031Z,6.50
2019-03-27T15:34:28.865Z,12.53
2019-03-27T15:37:17.744Z,7.40
2019-03-27T15:40:06.867Z,5.40
2019-03-27T15:42:55.733Z,6.20
2019-03-27T15:45:44.571Z,7.47
2019-03-27T15:48:33.426Z,9.10
2019-03-27T15:51:15.328Z,7.00
2019-03-27T15:54:04.283Z,8.80
2019-03-27T15:56:53.116Z,8.20
2019-03-27T15:59:41.932Z,8.17
2019-03-27T16:02:30.734Z,6.70
2019-03-27T16:05:19.565Z,6.70
2019-03-27T16:08:08.383Z,6.20
2019-03-27T16:10:57.221Z,9.10
2019-03-27T16:13:46.010Z,6.97
2019-03-27T16:16:34.892Z,10.20
2019-03-27T16:19:23.646Z,7.37
2019-03-27T16:22:12.468Z,8.88
2019-03-27T16:25:01.283Z,6.67
2019-03-27T16:27:50.088Z,7.00
2019-03-27T16:30:38.919Z,7.40
2019-03-27T16:33:27.716Z,6.60
2019-03-27T16:36:16.541Z,6.73
2019-03-27T16:39:26.260Z,12.53
2019-03-27T16:42:15.087Z,11.23
2019-03-27T16:45:24.819Z,9.93
2019-03-27T16:48:13.824Z,7.43
2019-03-27T16:51:02.627Z,13.78
2019-03-27T16:53:44.736Z,8.73
2019-03-27T16:56:33.553Z,8.73
2019-03-27T16:59:22.374Z,6.40
2019-03-27T17:02:11.271Z,7.33
2019-03-27T17:05:00.095Z,11.17
2019-03-27T17:07:48.984Z,6.37
2019-03-27T17:10:37.779Z,7.40
2019-03-27T17:13:26.608Z,7.77
2019-03-27T17:16:15.496Z,9.90
2019-03-27T17:19:04.329Z,7.90
2019-03-27T17:21:53.134Z,7.55
2019-03-27T17:24:41.964Z,10.67
2019-03-27T17:27:30.790Z,12.40
2019-03-27T17:30:20.046Z,12.50
2019-03-27T17:33:08.875Z,10.33
2019-03-27T17:35:38.374Z,8.37
2019-03-27T17:41:34.932Z,8.80
2019-03-27T17:44:23.764Z,8.40
2019-03-27T17:47:12.650Z,10.10
2019-03-27T17:50:01.468Z,7.90
2019-03-27T17:52:42.941Z,8.93
2019-03-27T17:55:31.771Z,9.33
2019-03-27T17:58:20.589Z,11.47
2019-03-27T18:01:09.666Z,9.67
2019-03-27T18:03:58.491Z,14.17
2019-03-27T18:07:06.324Z,16.97
2019-03-27T18:09:55.169Z,10.07
2019-03-27T18:12:43.990Z,8.70
2019-03-27T18:15:32.791Z,12.73
2019-03-27T18:18:21.606Z,9.80
2019-03-27T18:21:10.409Z,10.00
2019-03-27T18:29:47.564Z,11.57
2019-03-27T18:32:36.359Z,8.60
2019-03-27T18:35:25.188Z,8.37
2019-03-27T18:38:13.987Z,9.27
2019-03-27T18:41:02.882Z,14.63
2019-03-27T18:43:51.680Z,14.50
2019-03-27T18:46:40.499Z,17.87
2019-03-27T18:49:29.303Z,14.10
2019-03-27T18:52:10.875Z,12.03
2019-03-27T18:54:59.679Z,11.63
2019-03-27T18:57:59.345Z,10.30
2019-03-27T19:00:39.353Z,8.90
2019-03-27T19:03:28.208Z,11.17
2019-03-27T19:06:17.041Z,10.85
2019-03-27T19:09:26.754Z,9.80
2019-03-27T19:12:15.576Z,10.27
2019-03-27T19:15:25.298Z,11.07
2019-03-27T19:18:14.095Z,10.77
2019-03-27T19:21:02.919Z,11.40
2019-03-27T19:23:51.727Z,12.33
2019-03-27T19:26:40.540Z,14.50
2019-03-27T19:29:29.339Z,13.50
2019-03-27T19:32:18.231Z,12.83
2019-03-27T19:35:07.095Z,14.03
2019-03-27T19:37:55.944Z,15.37
2019-03-27T19:40:44.805Z,14.03
2019-03-27T19:43:33.634Z,12.43
2019-03-27T19:46:22.442Z,13.80
2019-03-27T19:49:11.331Z,12.80
2019-03-27T19:52:00.133Z,12.80
2019-03-27T19:54:41.854Z,13.80
2019-03-27T19:57:30.925Z,10.82
2019-03-27T20:03:35.122Z,12.07
2019-03-27T20:06:43.160Z,13.10
2019-03-27T20:09:32.014Z,14.70
2019-03-27T20:12:20.832Z,13.00
2019-03-27T20:15:12.132Z,13.07
2019-03-27T20:18:00.435Z,16.70
2019-03-27T20:20:49.663Z,15.98
2019-03-27T20:23:38.489Z,12.47
2019-03-27T20:29:35.113Z,15.83
2019-03-27T20:32:23.916Z,16.10
2019-03-27T20:35:12.798Z,16.20
2019-03-27T20:38:01.598Z,20.30
2019-03-27T20:40:43.139Z,18.70
2019-03-27T20:43:31.895Z,18.97
2019-03-27T20:49:14.977Z,17.10
2019-03-27T20:52:22.811Z,18.53
2019-03-27T20:55:11.771Z,15.80
2019-03-27T20:58:00.603Z,16.90
2019-03-27T21:01:08.811Z,19.12
2019-03-27T21:03:57.642Z,23.40
2019-03-27T21:06:46.467Z,18.80
2019-03-27T21:09:35.267Z,14.00
2019-03-27T21:12:24.090Z,13.90
2019-03-27T21:15:12.949Z,15.93
2019-03-27T21:18:01.805Z,21.50
2019-03-27T21:20:50.620Z,17.27
2019-03-27T21:23:39.443Z,17.53
2019-03-27T21:26:28.318Z,19.80
2019-03-27T21:29:17.123Z,19.00
2019-03-27T21:32:05.940Z,22.37
2019-03-27T21:35:13.759Z,21.20
2019-03-27T21:37:53.513Z,23.40
2019-03-27T21:40:42.360Z,23.40
2019-03-27T21:43:31.164Z,22.17
2019-03-27T21:49:27.732Z,18.50
2019-03-27T21:52:16.520Z,20.67
2019-03-27T21:55:24.666Z,24.40
2019-03-27T21:58:13.508Z,18.83
2019-03-27T22:01:02.379Z,19.07
2019-03-27T22:03:51.216Z,16.73
2019-03-27T22:06:40.029Z,17.50
2019-03-27T22:09:28.824Z,16.57
2019-03-27T22:12:17.642Z,18.20
2019-03-27T22:15:25.756Z,19.07
2019-03-27T22:18:14.580Z,23.63
2019-03-27T22:21:03.384Z,21.07
2019-03-27T22:23:52.242Z,18.83
2019-03-27T22:26:41.049Z,22.83
2019-03-27T22:29:29.861Z,18.53
2019-03-27T22:32:18.923Z,19.57
2019-03-27T22:38:27.303Z,20.33
2019-03-27T22:41:16.095Z,15.60
2019-03-27T22:44:04.910Z,16.63
2019-03-27T22:46:53.730Z,15.23
2019-03-27T22:49:42.558Z,16.67
2019-03-27T22:52:31.346Z,19.17
2019-03-27T22:55:20.170Z,19.17
2019-03-27T22:58:08.962Z,17.95
2019-03-27T23:03:53.747Z,17.20
2019-03-27T23:06:42.550Z,16.30
2019-03-27T23:09:31.367Z,15.73
2019-03-27T23:15:27.984Z,13.67
2019-03-27T23:18:17.442Z,17.80
2019-03-27T23:21:25.280Z,19.00
2019-03-27T23:24:14.070Z,21.93
2019-03-27T23:27:02.908Z,17.03
2019-03-27T23:29:51.695Z,14.10
2019-03-27T23:32:40.522Z,14.17
2019-03-27T23:35:29.319Z,15.97
2019-03-27T23:38:18.134Z,17.17
2019-03-27T23:40:59.677Z,17.42
2019-03-27T23:43:49.080Z,16.47
2019-03-27T23:46:39.012Z,19.60
2019-03-27T23:49:27.809Z,17.00
2019-03-27T23:52:16.630Z,19.53
2019-03-27T23:58:34.499Z,19.90
